Time;durP1;ratioP1;P1;durP2;ratioP2;P2;SDS_P1;SDS_P2;PMS_P1;PMS_P2;Temp;Humidity;BMP_temperature;BMP_pressure;BME280_temperature;BME280_humidity;BME280_pressure;Samples;Min_cycle;Max_cycle;Signal;HPM_P1;HPM_P2
2022/01/24 00:00:17;;;;;;;3.72;3.53;;;;;;;;;;6204108;23;20047;-39
2022/01/24 00:02:43;;;;;;;3.58;3.38;;;;;;;;;;6205057;23;20016;-39
2022/01/24 00:05:10;;;;;;;3.53;3.22;;;;;;;;;;6204292;23;20021;-39
2022/01/24 00:07:35;;;;;;;3.65;3.42;;;;;;;;;;6204488;23;20498;-39
2022/01/24 00:10:04;;;;;;;4.30;4.00;;;;;;;;;;6204989;23;20019;-39
2022/01/24 00:12:39;;;;;;;3.97;3.72;;;;;;;;;;6203430;23;20779;-39
2022/01/24 00:15:48;;;;;;;4.45;4.18;;;;;;;;;;6204998;23;20123;-39
2022/01/24 00:18:07;;;;;;;3.70;3.50;;;;;;;;;;6200974;23;20032;-39
2022/01/24 00:28:45;;;;;;;4.38;4.07;;;;;;;;;;6181044;23;20347;-39
2022/01/24 00:31:10;;;;;;;4.57;4.28;;;;;;;;;;6204309;23;20600;-40
2022/01/24 00:33:35;;;;;;;4.65;4.35;;;;;;;;;;6204050;23;20012;-41
2022/01/24 00:36:00;;;;;;;3.80;3.60;;;;;;;;;;6204731;23;20083;-39
2022/01/24 00:38:25;;;;;;;4.65;4.28;;;;;;;;;;6203781;23;20115;-40
2022/01/24 00:40:51;;;;;;;4.10;3.80;;;;;;;;;;6204918;23;20012;-39
2022/01/24 00:43:58;;;;;;;4.32;4.03;;;;;;;;;;6202984;23;20547;-40
2022/01/24 00:46:15;;;;;;;4.45;4.15;;;;;;;;;;6203723;23;20020;-39
2022/01/24 00:54:58;;;;;;;4.13;3.83;;;;;;;;;;6204222;23;20035;-40
2022/01/24 00:56:58;;;;;;;4.45;4.15;;;;;;;;;;6190624;23;20005;-40
2022/01/24 00:59:24;;;;;;;4.68;4.38;;;;;;;;;;6205292;23;20032;-39
2022/01/24 01:01:49;;;;;;;3.92;3.70;;;;;;;;;;6206988;23;20008;-39
2022/01/24 01:04:15;;;;;;;4.30;4.00;;;;;;;;;;6205628;23;20039;-39
2022/01/24 01:06:43;;;;;;;3.97;3.75;;;;;;;;;;6207453;23;20087;-39
2022/01/24 01:20:04;;;;;;;4.40;4.10;;;;;;;;;;6207121;23;20015;-40
2022/01/24 01:22:29;;;;;;;4.15;3.85;;;;;;;;;;6206594;23;20017;-41
2022/01/24 01:24:55;;;;;;;4.03;3.83;;;;;;;;;;6208956;23;20025;-40
2022/01/24 01:27:31;;;;;;;4.07;3.58;;;;;;;;;;6208192;23;20108;-40
2022/01/24 01:30:06;;;;;;;4.00;3.70;;;;;;;;;;6209043;23;20527;-40
2022/01/24 01:56:04;;;;;;;3.30;3.10;;;;;;;;;;6208864;23;20008;-40
2022/01/24 01:58:30;;;;;;;2.95;2.80;;;;;;;;;;6207695;23;20016;-41
2022/01/24 02:00:56;;;;;;;2.50;2.40;;;;;;;;;;6207277;23;20026;-40
2022/01/24 02:03:22;;;;;;;3.50;3.30;;;;;;;;;;6208443;23;20021;-40
2022/01/24 02:05:48;;;;;;;3.17;2.97;;;;;;;;;;6207371;23;20450;-40
2022/01/24 02:08:13;;;;;;;2.80;2.63;;;;;;;;;;6208339;23;20013;-40
2022/01/24 02:10:41;;;;;;;3.00;2.80;;;;;;;;;;6208261;23;20027;-42
2022/01/24 02:13:07;;;;;;;3.10;2.90;;;;;;;;;;6208957;23;20009;-40
2022/01/24 02:15:47;;;;;;;3.15;2.95;;;;;;;;;;6207707;23;20013;-40
2022/01/24 02:18:27;;;;;;;3.22;3.03;;;;;;;;;;6208110;23;20537;-40
2022/01/24 02:21:09;;;;;;;3.42;3.22;;;;;;;;;;6208051;23;20036;-40
2022/01/24 02:26:02;;;;;;;3.28;3.08;;;;;;;;;;6208372;23;20331;-40
2022/01/24 02:28:39;;;;;;;3.70;3.50;;;;;;;;;;6208438;23;20020;-40
2022/01/24 02:33:49;;;;;;;3.10;2.90;;;;;;;;;;6186522;23;20058;-42
2022/01/24 02:36:22;;;;;;;3.00;2.80;;;;;;;;;;6208714;23;20012;-40
2022/01/24 02:49:27;;;;;;;3.22;3.03;;;;;;;;;;6207568;23;20013;-40
2022/01/24 02:52:01;;;;;;;3.40;3.20;;;;;;;;;;6208052;23;20020;-40
2022/01/24 02:54:31;;;;;;;3.40;3.20;;;;;;;;;;6207513;23;20012;-40
2022/01/24 02:56:57;;;;;;;3.20;3.00;;;;;;;;;;6208724;23;20088;-40
2022/01/24 02:59:22;;;;;;;2.72;2.63;;;;;;;;;;6206912;23;20382;-40
2022/01/24 03:01:47;;;;;;;3.03;2.83;;;;;;;;;;6208535;23;20096;-40
2022/01/24 03:04:13;;;;;;;2.55;2.45;;;;;;;;;;6207470;23;20013;-42
2022/01/24 03:06:38;;;;;;;2.85;2.65;;;;;;;;;;6206054;23;20079;-40
2022/01/24 03:09:04;;;;;;;2.78;2.63;;;;;;;;;;6208725;23;20013;-40
2022/01/24 03:11:51;;;;;;;2.70;2.60;;;;;;;;;;6207262;23;20016;-40
2022/01/24 03:14:16;;;;;;;2.90;2.78;;;;;;;;;;6206937;23;20042;-40
2022/01/24 03:16:41;;;;;;;2.85;2.70;;;;;;;;;;6208153;23;20015;-40
2022/01/24 03:19:06;;;;;;;2.80;2.60;;;;;;;;;;6206647;23;20015;-41
2022/01/24 03:21:32;;;;;;;2.47;2.38;;;;;;;;;;6207610;23;20012;-40
2022/01/24 03:23:57;;;;;;;2.63;2.53;;;;;;;;;;6207701;23;20021;-40
2022/01/24 03:26:22;;;;;;;2.83;2.60;;;;;;;;;;6206613;23;20021;-40
2022/01/24 03:28:48;;;;;;;2.70;2.50;;;;;;;;;;6207424;23;20411;-40
2022/01/24 03:31:13;;;;;;;2.10;2.00;;;;;;;;;;6207485;23;20008;-40
2022/01/24 03:33:38;;;;;;;2.90;2.70;;;;;;;;;;6208165;23;19997;-41
2022/01/24 03:36:03;;;;;;;2.47;2.38;;;;;;;;;;6207495;23;20009;-40
2022/01/24 03:38:29;;;;;;;2.97;2.78;;;;;;;;;;6207521;23;20320;-40
2022/01/24 03:40:54;;;;;;;2.90;2.70;;;;;;;;;;6207641;23;20031;-42
2022/01/24 03:43:19;;;;;;;3.13;2.92;;;;;;;;;;6206764;23;20019;-40
2022/01/24 03:45:48;;;;;;;2.38;2.28;;;;;;;;;;6207580;23;20031;-40
2022/01/24 03:48:37;;;;;;;2.60;2.50;;;;;;;;;;6206381;23;20013;-40
2022/01/24 03:51:02;;;;;;;2.42;2.33;;;;;;;;;;6207286;23;20021;-40
2022/01/24 03:53:28;;;;;;;2.80;2.67;;;;;;;;;;6206866;23;20020;-40
2022/01/24 03:55:53;;;;;;;2.40;2.30;;;;;;;;;;6207843;23;20517;-40
2022/01/24 03:58:18;;;;;;;2.70;2.60;;;;;;;;;;6206336;23;20017;-40
2022/01/24 04:00:44;;;;;;;3.30;3.10;;;;;;;;;;6208236;23;20781;-41
2022/01/24 04:03:10;;;;;;;2.65;2.50;;;;;;;;;;6206624;23;20338;-40
2022/01/24 04:05:35;;;;;;;2.55;2.45;;;;;;;;;;6208117;23;20066;-40
2022/01/24 04:08:02;;;;;;;3.30;3.10;;;;;;;;;;6206735;23;20005;-40
2022/01/24 04:10:27;;;;;;;2.83;2.63;;;;;;;;;;6206706;23;20096;-40
2022/01/24 04:12:53;;;;;;;2.83;2.63;;;;;;;;;;6207036;23;20037;-41
2022/01/24 04:15:41;;;;;;;2.60;2.45;;;;;;;;;;6206902;23;20008;-41
2022/01/24 04:21:24;;;;;;;3.05;2.85;;;;;;;;;;6170741;23;20004;-40
2022/01/24 04:24:04;;;;;;;2.40;2.30;;;;;;;;;;6180825;23;20019;-40
2022/01/24 04:26:30;;;;;;;3.05;2.85;;;;;;;;;;6205999;23;20032;-40
2022/01/24 04:28:55;;;;;;;2.97;2.78;;;;;;;;;;6207110;23;20008;-40
2022/01/24 04:31:22;;;;;;;2.70;2.60;;;;;;;;;;6206750;23;20442;-40
2022/01/24 04:33:47;;;;;;;2.42;2.33;;;;;;;;;;6206753;23;20008;-40
2022/01/24 04:36:13;;;;;;;2.53;2.33;;;;;;;;;;6180248;23;20015;-40
2022/01/24 04:38:38;;;;;;;2.92;2.72;;;;;;;;;;6207075;23;20005;-41
2022/01/24 04:41:12;;;;;;;2.70;2.50;;;;;;;;;;6207440;23;20017;-41
2022/01/24 04:56:55;;;;;;;2.75;2.65;;;;;;;;;;6209739;23;20012;-40
2022/01/24 04:59:20;;;;;;;2.60;2.40;;;;;;;;;;6206039;23;20385;-41
2022/01/24 05:01:46;;;;;;;2.92;2.75;;;;;;;;;;6207381;23;20031;-40
2022/01/24 05:04:11;;;;;;;3.30;3.10;;;;;;;;;;6205200;23;20065;-41
2022/01/24 05:06:36;;;;;;;2.95;2.75;;;;;;;;;;6208952;23;20442;-40
2022/01/24 05:09:04;;;;;;;3.65;3.25;;;;;;;;;;6208000;23;20023;-40
2022/01/24 05:25:17;;;;;;;2.88;2.67;;;;;;;;;;6206081;23;20032;-41
2022/01/24 05:27:42;;;;;;;2.45;2.35;;;;;;;;;;6206059;23;20036;-40
2022/01/24 05:30:08;;;;;;;3.38;3.10;;;;;;;;;;6206552;23;20358;-40
2022/01/24 05:32:33;;;;;;;2.85;2.67;;;;;;;;;;6206159;23;20004;-40
2022/01/24 05:34:58;;;;;;;2.85;2.65;;;;;;;;;;6206853;23;20009;-40
2022/01/24 05:37:23;;;;;;;2.38;2.28;;;;;;;;;;6205589;23;20062;-41
2022/01/24 05:39:49;;;;;;;2.65;2.55;;;;;;;;;;6207088;23;20469;-40
2022/01/24 05:42:17;;;;;;;2.65;2.50;;;;;;;;;;6203929;23;20032;-40
2022/01/24 05:44:42;;;;;;;2.95;2.75;;;;;;;;;;6207088;23;20402;-40
2022/01/24 05:47:07;;;;;;;2.53;2.42;;;;;;;;;;6206582;23;20020;-40
2022/01/24 05:49:32;;;;;;;2.35;2.25;;;;;;;;;;6206252;23;20334;-40
2022/01/24 05:51:58;;;;;;;2.25;2.15;;;;;;;;;;6206291;23;20107;-40
2022/01/24 05:54:23;;;;;;;2.63;2.50;;;;;;;;;;6206664;23;20043;-40
2022/01/24 05:56:48;;;;;;;2.60;2.40;;;;;;;;;;6206405;23;20043;-40
2022/01/24 05:59:13;;;;;;;2.78;2.67;;;;;;;;;;6206292;23;20341;-40
2022/01/24 06:01:39;;;;;;;2.65;2.55;;;;;;;;;;6206632;23;20486;-40
2022/01/24 06:04:04;;;;;;;3.10;2.90;;;;;;;;;;6207010;23;20525;-40
2022/01/24 06:06:29;;;;;;;3.00;2.80;;;;;;;;;;6205910;23;20017;-40
2022/01/24 06:08:55;;;;;;;3.38;3.17;;;;;;;;;;6207188;23;20009;-40
2022/01/24 06:11:23;;;;;;;3.38;3.17;;;;;;;;;;6208100;23;20059;-40
2022/01/24 06:13:51;;;;;;;3.15;2.95;;;;;;;;;;6209116;23;20019;-40
2022/01/24 06:16:16;;;;;;;3.65;3.33;;;;;;;;;;6208115;23;20066;-40
2022/01/24 06:18:41;;;;;;;3.38;3.08;;;;;;;;;;6208718;23;20008;-40
2022/01/24 06:21:06;;;;;;;2.90;2.70;;;;;;;;;;6207950;23;20084;-40
2022/01/24 06:23:32;;;;;;;2.97;2.78;;;;;;;;;;6208578;23;20812;-40
2022/01/24 06:25:57;;;;;;;2.80;2.60;;;;;;;;;;6208003;23;20024;-40
2022/01/24 06:28:22;;;;;;;3.03;2.83;;;;;;;;;;6207850;23;20037;-40
2022/01/24 06:30:47;;;;;;;3.00;2.80;;;;;;;;;;6208113;23;20037;-40
2022/01/24 06:33:13;;;;;;;2.90;2.70;;;;;;;;;;6208313;23;20011;-41
2022/01/24 06:35:38;;;;;;;3.10;2.90;;;;;;;;;;6207906;23;20142;-40
2022/01/24 06:38:03;;;;;;;2.88;2.67;;;;;;;;;;6208211;23;20012;-40
2022/01/24 06:40:29;;;;;;;3.08;2.88;;;;;;;;;;6207467;23;20020;-40
2022/01/24 06:42:54;;;;;;;2.85;2.65;;;;;;;;;;6208543;23;20008;-40
2022/01/24 06:45:19;;;;;;;2.83;2.63;;;;;;;;;;6207049;23;20103;-40
2022/01/24 06:47:44;;;;;;;3.20;3.00;;;;;;;;;;6209164;23;20004;-40
2022/01/24 06:50:10;;;;;;;2.63;2.53;;;;;;;;;;6206144;23;20020;-41
2022/01/24 06:52:35;;;;;;;3.50;3.20;;;;;;;;;;6207492;23;20036;-40
2022/01/24 06:55:00;;;;;;;3.33;3.13;;;;;;;;;;6208135;23;20492;-40
2022/01/24 06:57:26;;;;;;;2.70;2.60;;;;;;;;;;6207729;23;20016;-40
2022/01/24 06:59:51;;;;;;;2.75;2.55;;;;;;;;;;6208054;23;20012;-42
2022/01/24 07:02:16;;;;;;;3.50;2.35;;;;;;;;;;6207278;23;20750;-41
2022/01/24 07:04:43;;;;;;;2.92;2.72;;;;;;;;;;6207879;23;20008;-41
2022/01/24 07:07:08;;;;;;;2.55;2.45;;;;;;;;;;6208690;23;20467;-40
2022/01/24 07:09:34;;;;;;;2.80;2.60;;;;;;;;;;6206907;23;20013;-40
2022/01/24 07:11:59;;;;;;;3.20;3.00;;;;;;;;;;6208199;23;20020;-40
2022/01/24 07:14:24;;;;;;;2.90;2.70;;;;;;;;;;6207315;23;20008;-40
2022/01/24 07:19:26;;;;;;;3.47;3.28;;;;;;;;;;6208061;23;20016;-40
2022/01/24 07:21:52;;;;;;;2.78;2.60;;;;;;;;;;6208216;23;20023;-40
2022/01/24 07:24:17;;;;;;;3.10;2.90;;;;;;;;;;6180191;23;20005;-40
2022/01/24 07:26:42;;;;;;;3.42;2.50;;;;;;;;;;6208949;23;20020;-40
2022/01/24 07:29:07;;;;;;;3.10;2.90;;;;;;;;;;6209473;23;20020;-40
2022/01/24 07:31:33;;;;;;;2.83;2.72;;;;;;;;;;6206934;23;20423;-40
2022/01/24 07:33:58;;;;;;;2.42;2.33;;;;;;;;;;6207876;23;20012;-41
2022/01/24 07:36:24;;;;;;;2.47;2.38;;;;;;;;;;6204883;23;20017;-40
2022/01/24 07:38:49;;;;;;;2.72;2.63;;;;;;;;;;6207973;23;20382;-40
2022/01/24 07:41:17;;;;;;;2.80;2.60;;;;;;;;;;6206753;23;20016;-40
2022/01/24 07:43:43;;;;;;;3.03;2.83;;;;;;;;;;6208202;23;20461;-40
2022/01/24 07:46:08;;;;;;;3.13;2.92;;;;;;;;;;6207304;23;20021;-42
2022/01/24 07:48:33;;;;;;;3.35;3.15;;;;;;;;;;6207571;23;20059;-40
2022/01/24 07:50:58;;;;;;;3.63;3.33;;;;;;;;;;6207486;23;20039;-40
2022/01/24 07:53:24;;;;;;;2.70;2.55;;;;;;;;;;6207064;23;20023;-40
2022/01/24 07:55:50;;;;;;;3.28;3.08;;;;;;;;;;6207253;23;20420;-40
2022/01/24 07:58:15;;;;;;;3.38;3.17;;;;;;;;;;6207461;23;20015;-40
2022/01/24 08:00:41;;;;;;;3.17;2.97;;;;;;;;;;6207948;23;20005;-41
2022/01/24 08:03:07;;;;;;;2.83;2.63;;;;;;;;;;6208141;23;20058;-41
2022/01/24 08:05:32;;;;;;;3.00;2.80;;;;;;;;;;6206630;23;20115;-40
2022/01/24 08:07:57;;;;;;;2.92;2.72;;;;;;;;;;6207838;23;20094;-40
2022/01/24 08:10:23;;;;;;;3.42;3.22;;;;;;;;;;6206842;23;20354;-40
2022/01/24 08:12:48;;;;;;;3.15;2.95;;;;;;;;;;6208166;23;20009;-41
2022/01/24 08:15:17;;;;;;;2.92;2.72;;;;;;;;;;6207943;23;20016;-40
2022/01/24 08:17:43;;;;;;;2.97;2.80;;;;;;;;;;6207529;23;20083;-40
2022/01/24 08:20:09;;;;;;;3.47;3.28;;;;;;;;;;6207539;23;20043;-41
2022/01/24 08:22:34;;;;;;;3.50;3.30;;;;;;;;;;6206531;23;22912;-40
2022/01/24 08:25:03;;;;;;;3.60;3.30;;;;;;;;;;6207986;23;20802;-40
2022/01/24 08:27:28;;;;;;;2.70;2.58;;;;;;;;;;6206145;23;20051;-40
2022/01/24 08:29:53;;;;;;;3.40;3.20;;;;;;;;;;6207843;23;20009;-41
2022/01/24 08:32:19;;;;;;;3.10;2.90;;;;;;;;;;6206163;23;20020;-41
2022/01/24 08:34:45;;;;;;;2.90;2.70;;;;;;;;;;6207977;23;20371;-40
2022/01/24 08:37:11;;;;;;;3.38;3.08;;;;;;;;;;6206893;23;20573;-40
2022/01/24 08:39:37;;;;;;;3.67;3.38;;;;;;;;;;6206814;23;20486;-40
2022/01/24 08:42:13;;;;;;;3.45;3.25;;;;;;;;;;6207549;23;20009;-40
2022/01/24 08:47:04;;;;;;;3.90;3.60;;;;;;;;;;6207421;23;20086;-40
2022/01/24 08:49:29;;;;;;;4.18;3.88;;;;;;;;;;6205827;23;20036;-40
2022/01/24 08:51:54;;;;;;;4.20;3.90;;;;;;;;;;6207109;23;20031;-40
2022/01/24 08:54:20;;;;;;;3.78;3.58;;;;;;;;;;6203190;23;20373;-40
2022/01/24 08:56:47;;;;;;;3.72;3.53;;;;;;;;;;6205245;23;20013;-40
2022/01/24 08:59:12;;;;;;;3.33;3.08;;;;;;;;;;6204451;23;20013;-40
2022/01/24 09:01:38;;;;;;;3.97;3.67;;;;;;;;;;6204751;23;20052;-40
2022/01/24 09:04:03;;;;;;;3.80;3.55;;;;;;;;;;6205074;23;20004;-39
2022/01/24 09:06:29;;;;;;;3.60;3.30;;;;;;;;;;6203788;23;20474;-40
2022/01/24 09:09:02;;;;;;;3.83;3.45;;;;;;;;;;6203706;23;20012;-40
2022/01/24 09:11:28;;;;;;;4.40;4.10;;;;;;;;;;6198170;23;20022;-40
2022/01/24 09:13:54;;;;;;;3.80;3.60;;;;;;;;;;6200737;23;20320;-40
2022/01/24 09:16:19;;;;;;;8.73;3.92;;;;;;;;;;6201161;23;20520;-40
2022/01/24 09:18:44;;;;;;;3.78;3.47;;;;;;;;;;6202399;23;20009;-40
2022/01/24 09:21:10;;;;;;;4.10;3.80;;;;;;;;;;6201793;23;20019;-40
2022/01/24 09:23:35;;;;;;;4.40;4.10;;;;;;;;;;6202371;23;20017;-40
2022/01/24 09:26:01;;;;;;;3.80;3.60;;;;;;;;;;6202565;23;20028;-40
2022/01/24 09:28:26;;;;;;;4.05;3.75;;;;;;;;;;6202231;23;20012;-41
2022/01/24 09:30:52;;;;;;;3.42;3.22;;;;;;;;;;6201846;23;20012;-40
2022/01/24 09:33:18;;;;;;;3.95;3.65;;;;;;;;;;6203023;23;20009;-40
2022/01/24 09:35:43;;;;;;;3.78;3.50;;;;;;;;;;6201904;23;20139;-40
2022/01/24 09:38:09;;;;;;;3.70;3.50;;;;;;;;;;6204484;23;20086;-41
2022/01/24 09:40:34;;;;;;;4.07;3.78;;;;;;;;;;6201790;23;20020;-40
2022/01/24 09:43:00;;;;;;;4.70;4.28;;;;;;;;;;6203068;23;20088;-40
2022/01/24 09:45:25;;;;;;;4.22;3.92;;;;;;;;;;6203804;23;20028;-40
2022/01/24 09:47:52;;;;;;;5.00;4.60;;;;;;;;;;6204974;23;20012;-40
2022/01/24 09:50:18;;;;;;;3.83;3.60;;;;;;;;;;6203575;23;20029;-41
2022/01/24 09:52:44;;;;;;;4.07;3.78;;;;;;;;;;6205518;23;20012;-40
2022/01/24 09:55:10;;;;;;;4.13;3.83;;;;;;;;;;6206384;23;20096;-39
2022/01/24 09:57:35;;;;;;;3.30;3.10;;;;;;;;;;6207005;23;20546;-40
2022/01/24 10:00:01;;;;;;;4.70;4.40;;;;;;;;;;6205514;23;20450;-40
2022/01/24 10:02:26;;;;;;;3.75;3.50;;;;;;;;;;6206756;23;20017;-41
2022/01/24 10:04:52;;;;;;;3.90;3.60;;;;;;;;;;6206035;23;20088;-40
2022/01/24 10:07:17;;;;;;;3.72;3.53;;;;;;;;;;6203933;23;20013;-40
2022/01/24 10:09:51;;;;;;;3.72;3.53;;;;;;;;;;6205241;23;20001;-40
2022/01/24 10:16:24;;;;;;;4.10;3.80;;;;;;;;;;6204584;23;20059;-40
2022/01/24 10:18:06;;;;;;;3.10;2.90;;;;;;;;;;6204290;23;20007;-40
2022/01/24 10:20:33;;;;;;;3.95;3.75;;;;;;;;;;6203066;23;20126;-40
2022/01/24 10:23:20;;;;;;;3.45;3.25;;;;;;;;;;6204056;23;20013;-40
2022/01/24 10:25:48;;;;;;;4.03;3.75;;;;;;;;;;6203387;23;20042;-40
2022/01/24 10:28:21;;;;;;;3.58;3.38;;;;;;;;;;6204740;23;20088;-40
2022/01/24 10:30:49;;;;;;;3.88;3.58;;;;;;;;;;6203726;23;20015;-40
2022/01/24 10:33:14;;;;;;;4.15;3.85;;;;;;;;;;6203447;23;20021;-39
2022/01/24 10:35:44;;;;;;;3.85;3.58;;;;;;;;;;6204328;23;20032;-42
2022/01/24 10:38:34;;;;;;;4.25;3.95;;;;;;;;;;6204484;23;20234;-41
2022/01/24 10:43:40;;;;;;;4.10;3.80;;;;;;;;;;6203711;23;20454;-40
2022/01/24 10:46:05;;;;;;;4.03;3.72;;;;;;;;;;6177848;23;20023;-41
2022/01/24 10:48:32;;;;;;;4.25;3.95;;;;;;;;;;6202540;23;20008;-40
2022/01/24 10:51:24;;;;;;;3.45;3.22;;;;;;;;;;6204192;23;20031;-41
2022/01/24 10:53:50;;;;;;;4.32;4.03;;;;;;;;;;6195812;23;20017;-41
2022/01/24 10:56:28;;;;;;;4.40;4.10;;;;;;;;;;6202922;23;20538;-41
2022/01/24 10:58:57;;;;;;;4.18;3.83;;;;;;;;;;6204120;23;20012;-40
2022/01/24 11:01:26;;;;;;;4.10;3.45;;;;;;;;;;6202664;23;20600;-40
2022/01/24 11:04:02;;;;;;;3.92;3.63;;;;;;;;;;6204153;23;20005;-42
2022/01/24 11:06:29;;;;;;;3.63;3.42;;;;;;;;;;6202316;23;20020;-40
2022/01/24 11:09:10;;;;;;;4.18;3.90;;;;;;;;;;6204358;23;20012;-40
2022/01/24 11:11:35;;;;;;;4.30;4.00;;;;;;;;;;6201616;23;20008;-40
2022/01/24 11:14:00;;;;;;;3.85;3.55;;;;;;;;;;6202648;23;20023;-40
2022/01/24 11:16:26;;;;;;;4.15;3.85;;;;;;;;;;6202326;23;20036;-42
2022/01/24 11:18:51;;;;;;;4.32;4.03;;;;;;;;;;6203728;23;20031;-41
2022/01/24 11:21:16;;;;;;;3.58;3.38;;;;;;;;;;6202722;23;20021;-41
2022/01/24 11:23:43;;;;;;;4.30;4.00;;;;;;;;;;6204268;23;20016;-41
2022/01/24 11:26:09;;;;;;;4.55;4.25;;;;;;;;;;6203332;23;20091;-40
2022/01/24 11:28:35;;;;;;;4.15;3.85;;;;;;;;;;6202801;23;20027;-42
2022/01/24 11:31:03;;;;;;;4.20;3.90;;;;;;;;;;6204170;23;20005;-40
2022/01/24 11:33:37;;;;;;;4.10;3.80;;;;;;;;;;6202921;23;20145;-40
2022/01/24 11:36:04;;;;;;;3.70;3.50;;;;;;;;;;6203243;23;20078;-40
2022/01/24 11:38:29;;;;;;;4.50;4.20;;;;;;;;;;6202322;23;20493;-39
2022/01/24 11:41:03;;;;;;;4.13;3.83;;;;;;;;;;6202484;23;20040;-40
2022/01/24 11:43:34;;;;;;;4.13;3.83;;;;;;;;;;6202324;23;20162;-40
2022/01/24 11:46:06;;;;;;;4.30;4.00;;;;;;;;;;6201983;23;20031;-41
2022/01/24 11:48:33;;;;;;;4.45;4.05;;;;;;;;;;6202809;23;20016;-40
2022/01/24 11:51:04;;;;;;;4.50;4.20;;;;;;;;;;6201525;23;20029;-40
2022/01/24 11:53:32;;;;;;;4.03;3.72;;;;;;;;;;6202898;23;20032;-40
2022/01/24 11:56:15;;;;;;;4.13;3.92;;;;;;;;;;6203232;23;20013;-40
2022/01/24 11:58:40;;;;;;;4.10;3.80;;;;;;;;;;6202862;23;20013;-40
2022/01/24 12:01:07;;;;;;;4.50;4.20;;;;;;;;;;6202389;23;20012;-40
2022/01/24 12:03:34;;;;;;;4.32;4.03;;;;;;;;;;6202204;23;20015;-40
2022/01/24 12:06:09;;;;;;;4.03;3.72;;;;;;;;;;6203069;23;20027;-40
2022/01/24 12:08:36;;;;;;;3.50;3.30;;;;;;;;;;6202615;23;20023;-40
2022/01/24 12:11:24;;;;;;;4.35;4.05;;;;;;;;;;6201037;23;20100;-40
2022/01/24 12:13:53;;;;;;;4.28;3.97;;;;;;;;;;6203295;23;20087;-40
2022/01/24 12:16:18;;;;;;;4.43;4.13;;;;;;;;;;6201846;23;20019;-40
2022/01/24 12:18:45;;;;;;;4.35;4.05;;;;;;;;;;6203609;23;20250;-40
2022/01/24 12:21:11;;;;;;;4.40;4.10;;;;;;;;;;6202011;23;20004;-40
2022/01/24 12:23:41;;;;;;;4.50;4.20;;;;;;;;;;6202313;23;20703;-40
2022/01/24 12:26:08;;;;;;;4.25;3.95;;;;;;;;;;6202113;23;20024;-40
2022/01/24 12:28:33;;;;;;;4.57;4.28;;;;;;;;;;6202356;23;20788;-40
2022/01/24 12:30:59;;;;;;;4.13;3.72;;;;;;;;;;6201778;23;20020;-40
2022/01/24 12:33:44;;;;;;;4.28;3.97;;;;;;;;;;6202960;23;20020;-40
2022/01/24 12:36:11;;;;;;;4.05;3.75;;;;;;;;;;6203285;23;20013;-40
2022/01/24 12:38:42;;;;;;;4.00;3.80;;;;;;;;;;6201717;23;20017;-40
2022/01/24 12:41:14;;;;;;;4.05;3.75;;;;;;;;;;6202005;23;20015;-40
2022/01/24 12:43:53;;;;;;;4.43;4.13;;;;;;;;;;6203203;23;20454;-40
2022/01/24 12:46:22;;;;;;;3.75;3.53;;;;;;;;;;6201565;23;20027;-40
2022/01/24 12:48:48;;;;;;;4.32;4.03;;;;;;;;;;6202878;23;20013;-40
2022/01/24 12:51:16;;;;;;;4.60;4.30;;;;;;;;;;6201101;23;20083;-40
2022/01/24 12:53:41;;;;;;;4.35;4.05;;;;;;;;;;6203131;23;20062;-39
2022/01/24 12:56:07;;;;;;;4.68;4.38;;;;;;;;;;6200539;23;20008;-40
2022/01/24 12:58:40;;;;;;;4.68;4.38;;;;;;;;;;6199456;23;20012;-40
2022/01/24 13:01:16;;;;;;;4.68;4.38;;;;;;;;;;6200530;23;20012;-40
2022/01/24 13:04:02;;;;;;;4.70;4.40;;;;;;;;;;6200804;23;20457;-40
2022/01/24 13:06:28;;;;;;;4.18;3.95;;;;;;;;;;6200054;23;20397;-40
2022/01/24 13:08:55;;;;;;;4.40;4.10;;;;;;;;;;6200626;23;20092;-40
2022/01/24 13:11:20;;;;;;;5.13;4.72;;;;;;;;;;6199624;23;20020;-40
2022/01/24 13:13:58;;;;;;;5.10;4.72;;;;;;;;;;6155482;23;20013;-40
2022/01/24 13:22:15;;;;;;;4.70;4.40;;;;;;;;;;6199412;23;20050;-40
2022/01/24 13:24:40;;;;;;;4.70;4.40;;;;;;;;;;6199678;23;20016;-40
2022/01/24 13:27:05;;;;;;;4.53;4.22;;;;;;;;;;6200133;23;20533;-40
2022/01/24 13:29:38;;;;;;;4.63;4.32;;;;;;;;;;6200125;23;20016;-40
2022/01/24 13:32:03;;;;;;;4.90;4.60;;;;;;;;;;6198950;23;20007;-40
2022/01/24 13:34:29;;;;;;;4.95;4.65;;;;;;;;;;6198821;23;20021;-40
2022/01/24 13:37:04;;;;;;;4.45;4.15;;;;;;;;;;6201009;23;20032;-40
2022/01/24 13:39:29;;;;;;;4.82;4.43;;;;;;;;;;6201386;23;20020;-40
2022/01/24 13:41:55;;;;;;;4.35;4.05;;;;;;;;;;6201030;23;20012;-40
2022/01/24 13:44:20;;;;;;;4.55;4.25;;;;;;;;;;6201221;23;20020;-40
2022/01/24 13:46:46;;;;;;;4.45;4.15;;;;;;;;;;6201593;23;20151;-40
2022/01/24 13:49:16;;;;;;;4.80;4.50;;;;;;;;;;6201887;23;20004;-42
2022/01/24 13:51:44;;;;;;;4.35;4.05;;;;;;;;;;6203056;23;20021;-42
2022/01/24 13:54:10;;;;;;;4.82;4.53;;;;;;;;;;6201851;23;20008;-42
2022/01/24 13:56:40;;;;;;;4.78;4.47;;;;;;;;;;6201142;23;20033;-40
2022/01/24 13:59:06;;;;;;;;;;;;;;;;;;6202919;23;20012;-40
2022/01/24 14:01:32;;;;;;;4.30;4.00;;;;;;;;;;6199786;23;19908;-42
2022/01/24 14:04:08;;;;;;;3.88;3.67;;;;;;;;;;6201810;23;20040;-40
2022/01/24 14:06:38;;;;;;;5.10;4.80;;;;;;;;;;6204128;23;20043;-40
2022/01/24 14:09:10;;;;;;;4.32;4.03;;;;;;;;;;6207323;23;20008;-41
2022/01/24 14:11:39;;;;;;;4.30;4.00;;;;;;;;;;6202685;23;20029;-40
2022/01/24 14:14:10;;;;;;;5.18;4.88;;;;;;;;;;6203988;23;20012;-40
2022/01/24 14:16:43;;;;;;;5.00;4.60;;;;;;;;;;6203467;23;20008;-41
2022/01/24 14:19:09;;;;;;;4.57;4.28;;;;;;;;;;6202678;23;20011;-41
2022/01/24 14:21:34;;;;;;;4.50;4.20;;;;;;;;;;6174676;23;20005;-42
2022/01/24 14:24:02;;;;;;;4.55;4.25;;;;;;;;;;6201890;23;20469;-40
2022/01/24 14:26:28;;;;;;;4.57;4.28;;;;;;;;;;6201485;23;20386;-40
2022/01/24 14:29:07;;;;;;;5.22;4.82;;;;;;;;;;6200919;23;20011;-40
2022/01/24 14:31:33;;;;;;;4.30;3.97;;;;;;;;;;6202274;23;20277;-39
2022/01/24 14:33:59;;;;;;;4.28;3.97;;;;;;;;;;6203377;23;20241;-40
2022/01/24 14:36:25;;;;;;;4.22;3.92;;;;;;;;;;6203107;23;20651;-41
2022/01/24 14:38:56;;;;;;;4.50;4.20;;;;;;;;;;6177092;23;20107;-39
2022/01/24 14:41:21;;;;;;;4.65;4.25;;;;;;;;;;6204078;23;20366;-40
2022/01/24 14:46:32;;;;;;;4.55;4.25;;;;;;;;;;6201420;23;20078;-40
2022/01/24 14:48:59;;;;;;;3.92;3.70;;;;;;;;;;6202910;23;20015;-40
2022/01/24 14:51:27;;;;;;;5.22;4.82;;;;;;;;;;6202566;23;20708;-40
2022/01/24 14:53:53;;;;;;;4.50;4.20;;;;;;;;;;6203499;23;20005;-40
2022/01/24 14:56:19;;;;;;;4.90;4.60;;;;;;;;;;6201914;23;20399;-40
2022/01/24 14:58:44;;;;;;;5.07;4.68;;;;;;;;;;6204154;23;20012;-40
2022/01/24 15:01:09;;;;;;;3.90;3.70;;;;;;;;;;6203396;23;20028;-40
2022/01/24 15:03:35;;;;;;;5.03;4.72;;;;;;;;;;6203452;23;20012;-41
2022/01/24 15:06:01;;;;;;;4.55;4.20;;;;;;;;;;6202963;23;20020;-40
2022/01/24 15:08:27;;;;;;;5.15;4.78;;;;;;;;;;6202856;23;20009;-40
2022/01/24 15:10:53;;;;;;;5.13;4.72;;;;;;;;;;6203384;23;20714;-40
2022/01/24 15:13:22;;;;;;;4.47;4.18;;;;;;;;;;6203168;23;20091;-40
2022/01/24 15:15:56;;;;;;;4.78;4.43;;;;;;;;;;6203184;23;20017;-39
2022/01/24 15:24:22;;;;;;;5.35;4.88;;;;;;;;;;6203412;23;20011;-40
2022/01/24 15:26:43;;;;;;;5.13;4.72;;;;;;;;;;6184961;23;20017;-39
2022/01/24 15:29:08;;;;;;;4.78;4.45;;;;;;;;;;6184166;23;20409;-41
2022/01/24 15:31:34;;;;;;;4.60;4.30;;;;;;;;;;6203657;23;20092;-40
2022/01/24 15:33:59;;;;;;;5.10;4.80;;;;;;;;;;6203137;23;20295;-40
2022/01/24 15:36:24;;;;;;;5.10;4.70;;;;;;;;;;6200763;23;20017;-40
2022/01/24 15:38:51;;;;;;;5.28;4.88;;;;;;;;;;6201592;23;20016;-40
2022/01/24 15:41:16;;;;;;;5.53;5.13;;;;;;;;;;6202114;23;20444;-40
2022/01/24 15:43:58;;;;;;;4.38;4.07;;;;;;;;;;6203546;23;20138;-40
2022/01/24 15:49:00;;;;;;;4.53;4.22;;;;;;;;;;6207186;23;20013;-40
2022/01/24 15:51:26;;;;;;;5.07;4.68;;;;;;;;;;6202150;23;20032;-39
2022/01/24 15:53:51;;;;;;;5.22;4.72;;;;;;;;;;6204083;23;20024;-40
2022/01/24 15:58:46;;;;;;;3.90;3.70;;;;;;;;;;6203895;23;20009;-40
2022/01/24 16:01:11;;;;;;;4.00;3.70;;;;;;;;;;6203385;23;20008;-40
2022/01/24 16:03:36;;;;;;;4.70;4.38;;;;;;;;;;6203457;23;20086;-40
2022/01/24 16:06:02;;;;;;;4.05;3.80;;;;;;;;;;6202268;23;20026;-40
2022/01/24 16:08:28;;;;;;;4.50;4.20;;;;;;;;;;6203027;23;20097;-40
2022/01/24 16:10:53;;;;;;;4.50;4.20;;;;;;;;;;6202351;23;20013;-40
2022/01/24 16:13:21;;;;;;;4.78;4.47;;;;;;;;;;6202933;23;20642;-39
2022/01/24 16:15:46;;;;;;;4.97;4.60;;;;;;;;;;6202118;23;20454;-40
2022/01/24 16:18:14;;;;;;;4.32;4.03;;;;;;;;;;6203125;23;20008;-40
2022/01/24 16:21:00;;;;;;;4.90;4.50;;;;;;;;;;6201819;23;20008;-40
2022/01/24 16:23:33;;;;;;;4.60;4.20;;;;;;;;;;6201968;23;20012;-40
2022/01/24 16:25:58;;;;;;;4.65;4.35;;;;;;;;;;6203381;23;20017;-40
2022/01/24 16:28:28;;;;;;;4.45;4.15;;;;;;;;;;6202474;23;20009;-40
2022/01/24 16:30:53;;;;;;;;;;;;;;;;;;6203735;23;20036;-40
2022/01/24 16:33:20;;;;;;;4.20;3.90;;;;;;;;;;6202849;23;20662;-42
2022/01/24 16:35:49;;;;;;;4.57;4.28;;;;;;;;;;6202366;23;20087;-40
2022/01/24 16:38:15;;;;;;;5.20;4.80;;;;;;;;;;6202441;23;20043;-39
2022/01/24 16:43:18;;;;;;;5.22;4.63;;;;;;;;;;6202726;23;20004;-40
2022/01/24 16:48:28;;;;;;;4.82;4.43;;;;;;;;;;6201237;23;20082;-40
2022/01/24 16:50:54;;;;;;;4.63;4.32;;;;;;;;;;6203127;23;20458;-40
2022/01/24 16:53:20;;;;;;;4.95;4.60;;;;;;;;;;6200219;23;20123;-40
2022/01/24 16:55:46;;;;;;;5.45;4.95;;;;;;;;;;6202066;23;20324;-40